Time;durP1;ratioP1;P1;durP2;ratioP2;P2;SDS_P1;SDS_P2;PMS_P1;PMS_P2;Temp;Humidity;BMP_temperature;BMP_pressure;BME280_temperature;BME280_humidity;BME280_pressure;Samples;Min_cycle;Max_cycle;Signal;HPM_P1;HPM_P2
2021/05/08 00:00:44;;;;;;;18.38;13.95;;;;;;;;;;5092583;28;20223;-53
2021/05/08 00:03:10;;;;;;;16.75;13.30;;;;;;;;;;5092677;28;20204;-53
2021/05/08 00:05:36;;;;;;;18.07;13.53;;;;;;;;;;5092594;28;20165;-55
2021/05/08 00:08:02;;;;;;;16.93;13.10;;;;;;;;;;5092633;28;20769;-54
2021/05/08 00:10:28;;;;;;;18.55;12.65;;;;;;;;;;5092221;28;20404;-53
2021/05/08 00:12:54;;;;;;;18.03;13.03;;;;;;;;;;5092542;28;20239;-53
2021/05/08 00:15:20;;;;;;;19.23;13.60;;;;;;;;;;5092358;28;20410;-53
2021/05/08 00:17:46;;;;;;;16.08;12.55;;;;;;;;;;5092668;28;20410;-53
2021/05/08 00:20:13;;;;;;;20.80;12.32;;;;;;;;;;5092344;28;20224;-53
2021/05/08 00:22:40;;;;;;;15.57;11.75;;;;;;;;;;5092402;28;20198;-54
2021/05/08 00:25:07;;;;;;;17.75;12.98;;;;;;;;;;5092153;28;20179;-53
2021/05/08 00:27:33;;;;;;;20.98;13.70;;;;;;;;;;5092323;28;20169;-53
2021/05/08 00:30:00;;;;;;;28.20;15.27;;;;;;;;;;5091759;28;20204;-53
2021/05/08 00:32:26;;;;;;;22.58;14.77;;;;;;;;;;5092072;28;20195;-53
2021/05/08 00:34:52;;;;;;;26.47;14.40;;;;;;;;;;5092077;28;20165;-54
2021/05/08 00:37:18;;;;;;;22.58;13.80;;;;;;;;;;5092116;28;20395;-53
2021/05/08 00:39:44;;;;;;;25.40;13.37;;;;;;;;;;5091689;28;20165;-53
2021/05/08 00:42:10;;;;;;;18.40;14.10;;;;;;;;;;5091985;28;20986;-53
2021/05/08 00:44:37;;;;;;;23.38;14.73;;;;;;;;;;5092033;28;20690;-53
2021/05/08 00:47:03;;;;;;;20.05;13.68;;;;;;;;;;5091819;28;20170;-53
2021/05/08 00:49:31;;;;;;;24.10;14.60;;;;;;;;;;5091662;28;20281;-54
2021/05/08 00:51:57;;;;;;;16.65;13.45;;;;;;;;;;5091449;28;20514;-53
2021/05/08 00:54:23;;;;;;;20.58;12.82;;;;;;;;;;5091734;28;20215;-53
2021/05/08 00:56:49;;;;;;;20.35;13.27;;;;;;;;;;5091538;28;20218;-53
2021/05/08 00:59:15;;;;;;;24.80;13.43;;;;;;;;;;5091458;28;20575;-54
2021/05/08 01:01:42;;;;;;;16.05;12.80;;;;;;;;;;5090838;28;20427;-53
2021/05/08 01:04:08;;;;;;;15.40;12.88;;;;;;;;;;5091123;28;20169;-53
2021/05/08 01:06:34;;;;;;;18.45;13.52;;;;;;;;;;5091013;28;20170;-53
2021/05/08 01:09:01;;;;;;;15.75;13.35;;;;;;;;;;5091230;28;20186;-53
2021/05/08 01:11:27;;;;;;;17.00;12.82;;;;;;;;;;5091196;28;20198;-53
2021/05/08 01:13:53;;;;;;;21.08;14.90;;;;;;;;;;5091431;28;20169;-53
2021/05/08 01:16:20;;;;;;;19.25;14.40;;;;;;;;;;5091395;28;20171;-53
2021/05/08 01:18:51;;;;;;;17.40;15.50;;;;;;;;;;5090995;28;20251;-53
2021/05/08 01:21:19;;;;;;;24.20;16.48;;;;;;;;;;5091298;28;20582;-53
2021/05/08 01:23:45;;;;;;;27.05;16.98;;;;;;;;;;5091074;28;20157;-53
2021/05/08 01:26:11;;;;;;;19.83;15.70;;;;;;;;;;5091111;28;20735;-53
2021/05/08 01:28:37;;;;;;;22.80;15.73;;;;;;;;;;5090459;28;20466;-53
2021/05/08 01:31:03;;;;;;;18.93;15.43;;;;;;;;;;5091133;28;20396;-53
2021/05/08 01:33:29;;;;;;;23.80;16.17;;;;;;;;;;5090935;28;20419;-54
2021/05/08 01:35:55;;;;;;;23.60;15.77;;;;;;;;;;5091125;28;20880;-53
2021/05/08 01:38:21;;;;;;;25.67;16.55;;;;;;;;;;5091150;28;20403;-53
2021/05/08 01:40:47;;;;;;;24.30;17.67;;;;;;;;;;5090908;28;20204;-53
2021/05/08 01:43:13;;;;;;;22.20;15.67;;;;;;;;;;5090865;28;20225;-54
2021/05/08 01:45:39;;;;;;;25.97;16.30;;;;;;;;;;5091027;28;20441;-53
2021/05/08 01:48:07;;;;;;;23.73;16.77;;;;;;;;;;5090752;28;20414;-53
2021/05/08 01:50:33;;;;;;;20.63;16.38;;;;;;;;;;5090621;28;20410;-53
2021/05/08 01:52:59;;;;;;;25.35;16.55;;;;;;;;;;5091136;28;20192;-52
2021/05/08 01:55:26;;;;;;;21.70;15.63;;;;;;;;;;5090847;28;20534;-53
2021/05/08 01:57:56;;;;;;;20.58;15.50;;;;;;;;;;5090928;28;20399;-52
2021/05/08 02:00:24;;;;;;;18.95;15.85;;;;;;;;;;5090723;28;20662;-52
2021/05/08 02:02:50;;;;;;;20.35;16.08;;;;;;;;;;5090915;28;20330;-52
2021/05/08 02:05:17;;;;;;;21.67;15.98;;;;;;;;;;5090806;28;20172;-52
2021/05/08 02:07:43;;;;;;;24.50;14.52;;;;;;;;;;5091049;28;20617;-52
2021/05/08 02:10:09;;;;;;;20.10;15.02;;;;;;;;;;5090583;28;20690;-52
2021/05/08 02:12:39;;;;;;;22.67;15.90;;;;;;;;;;5091069;28;20277;-53
2021/05/08 02:15:12;;;;;;;22.42;16.45;;;;;;;;;;5090847;28;20717;-52
2021/05/08 02:17:39;;;;;;;17.55;14.98;;;;;;;;;;5090770;28;20162;-52
2021/05/08 02:20:09;;;;;;;19.00;15.75;;;;;;;;;;5090301;28;20232;-54
2021/05/08 02:22:36;;;;;;;20.10;15.32;;;;;;;;;;5090588;28;20189;-53
2021/05/08 02:25:02;;;;;;;16.98;14.35;;;;;;;;;;5090466;28;20180;-52
2021/05/08 02:27:28;;;;;;;19.15;16.13;;;;;;;;;;5090580;28;20177;-54
2021/05/08 02:29:54;;;;;;;19.80;15.60;;;;;;;;;;5090086;28;20204;-53
2021/05/08 02:32:20;;;;;;;22.57;15.57;;;;;;;;;;5090506;28;20548;-54
2021/05/08 02:34:46;;;;;;;20.20;15.07;;;;;;;;;;5090401;28;20482;-53
2021/05/08 02:37:12;;;;;;;19.20;16.10;;;;;;;;;;5090676;28;20400;-52
2021/05/08 02:39:38;;;;;;;20.57;17.60;;;;;;;;;;5093246;28;20395;-53
2021/05/08 02:42:04;;;;;;;21.10;16.70;;;;;;;;;;5094158;28;20427;-54
2021/05/08 02:44:30;;;;;;;19.85;16.85;;;;;;;;;;5094321;28;20399;-53
2021/05/08 02:46:56;;;;;;;19.45;16.00;;;;;;;;;;5094050;28;20173;-53
2021/05/08 02:49:22;;;;;;;25.47;18.20;;;;;;;;;;5093842;28;20193;-53
2021/05/08 02:51:48;;;;;;;27.57;19.30;;;;;;;;;;5093794;28;20434;-54
2021/05/08 02:54:15;;;;;;;26.33;18.83;;;;;;;;;;5094113;28;20434;-54
2021/05/08 02:56:41;;;;;;;28.15;19.17;;;;;;;;;;5093911;28;20644;-53
2021/05/08 02:59:07;;;;;;;22.17;18.87;;;;;;;;;;5093878;28;20165;-52
2021/05/08 03:01:33;;;;;;;28.47;19.57;;;;;;;;;;5093675;28;20410;-53
2021/05/08 03:03:59;;;;;;;30.27;19.40;;;;;;;;;;5093914;28;20431;-53
2021/05/08 03:06:25;;;;;;;25.27;20.83;;;;;;;;;;5093785;28;20641;-52
2021/05/08 03:08:51;;;;;;;26.60;20.60;;;;;;;;;;5093448;28;20442;-53
2021/05/08 03:11:17;;;;;;;26.70;19.10;;;;;;;;;;5093562;28;20502;-54
2021/05/08 03:13:44;;;;;;;27.05;21.40;;;;;;;;;;5093718;28;20392;-54
2021/05/08 03:16:10;;;;;;;25.23;18.30;;;;;;;;;;5093536;28;20252;-52
2021/05/08 03:18:36;;;;;;;24.63;18.03;;;;;;;;;;5093441;28;20248;-53
2021/05/08 03:21:02;;;;;;;27.53;19.83;;;;;;;;;;5093473;28;20403;-53
2021/05/08 03:23:28;;;;;;;22.87;18.60;;;;;;;;;;5093334;28;20495;-52
2021/05/08 03:25:54;;;;;;;24.63;19.20;;;;;;;;;;5093589;28;20431;-53
2021/05/08 03:28:20;;;;;;;25.70;18.83;;;;;;;;;;5093252;28;20797;-52
2021/05/08 03:30:46;;;;;;;23.45;18.05;;;;;;;;;;5093107;28;20483;-52
2021/05/08 03:33:12;;;;;;;27.50;17.60;;;;;;;;;;5093164;28;20744;-53
2021/05/08 03:35:38;;;;;;;22.37;17.63;;;;;;;;;;5093398;28;20247;-52
2021/05/08 03:38:04;;;;;;;21.37;17.57;;;;;;;;;;5093118;28;20833;-53
2021/05/08 03:40:29;;;;;;;26.93;18.37;;;;;;;;;;5093014;28;20426;-53
2021/05/08 03:42:57;;;;;;;24.00;18.50;;;;;;;;;;5093026;28;20423;-53
2021/05/08 03:45:23;;;;;;;21.42;16.85;;;;;;;;;;5093243;28;20392;-53
2021/05/08 03:47:49;;;;;;;24.83;19.10;;;;;;;;;;5093269;28;20181;-52
2021/05/08 03:50:15;;;;;;;30.63;19.47;;;;;;;;;;5092269;28;20473;-52
2021/05/08 03:52:41;;;;;;;28.50;19.80;;;;;;;;;;5092864;28;20898;-53
2021/05/08 03:55:07;;;;;;;22.00;17.70;;;;;;;;;;5093147;28;20763;-52
2021/05/08 03:57:33;;;;;;;23.52;18.52;;;;;;;;;;5093102;28;20441;-52
2021/05/08 03:59:59;;;;;;;23.83;20.00;;;;;;;;;;5092620;28;20173;-52
2021/05/08 04:02:25;;;;;;;28.77;18.47;;;;;;;;;;5092878;28;20462;-52
2021/05/08 04:04:51;;;;;;;21.87;17.43;;;;;;;;;;5092705;28;20403;-52
2021/05/08 04:07:17;;;;;;;24.63;19.48;;;;;;;;;;5092725;28;20395;-52
2021/05/08 04:09:43;;;;;;;23.40;17.80;;;;;;;;;;5092450;28;20251;-53
2021/05/08 04:12:09;;;;;;;22.40;18.03;;;;;;;;;;5092520;28;20419;-52
2021/05/08 04:14:35;;;;;;;26.53;18.67;;;;;;;;;;5092253;28;20433;-52
2021/05/08 04:17:01;;;;;;;26.47;17.97;;;;;;;;;;5092424;28;20879;-53
2021/05/08 04:19:27;;;;;;;26.30;17.20;;;;;;;;;;5092028;28;20426;-53
2021/05/08 04:21:52;;;;;;;21.93;17.30;;;;;;;;;;5092310;28;20411;-54
2021/05/08 04:24:18;;;;;;;22.33;16.90;;;;;;;;;;5092247;28;20410;-53
2021/05/08 04:26:44;;;;;;;23.70;17.17;;;;;;;;;;5092358;28;20416;-54
2021/05/08 04:29:10;;;;;;;21.87;17.30;;;;;;;;;;5091868;28;20451;-53
2021/05/08 04:31:36;;;;;;;18.57;15.73;;;;;;;;;;5107950;28;20423;-53
2021/05/08 04:34:02;;;;;;;24.40;17.37;;;;;;;;;;5092146;28;20399;-53
2021/05/08 04:36:28;;;;;;;25.38;19.40;;;;;;;;;;5092129;28;20426;-52
2021/05/08 04:38:54;;;;;;;25.20;17.93;;;;;;;;;;5091904;28;20907;-52
2021/05/08 04:41:20;;;;;;;25.60;16.90;;;;;;;;;;5091720;28;20748;-52
2021/05/08 04:43:46;;;;;;;24.70;17.00;;;;;;;;;;5092016;28;20453;-52
2021/05/08 04:46:12;;;;;;;26.90;17.30;;;;;;;;;;5091862;28;20174;-52
2021/05/08 04:48:38;;;;;;;24.60;16.93;;;;;;;;;;5091660;28;20462;-52
2021/05/08 04:51:04;;;;;;;21.08;17.10;;;;;;;;;;5091615;28;20400;-52
2021/05/08 04:53:30;;;;;;;21.30;17.92;;;;;;;;;;5091671;28;20246;-53
2021/05/08 04:55:56;;;;;;;22.10;17.33;;;;;;;;;;5091878;28;20170;-53
2021/05/08 04:58:22;;;;;;;21.70;16.40;;;;;;;;;;5091757;28;20824;-53
2021/05/08 05:00:48;;;;;;;23.27;16.80;;;;;;;;;;5091279;28;20392;-54
2021/05/08 05:03:14;;;;;;;24.07;16.17;;;;;;;;;;5090668;28;20514;-54
2021/05/08 05:05:40;;;;;;;23.58;17.77;;;;;;;;;;5091393;28;20857;-54
2021/05/08 05:08:06;;;;;;;21.03;15.70;;;;;;;;;;5091490;28;20204;-53
2021/05/08 05:10:32;;;;;;;22.48;16.73;;;;;;;;;;5091001;28;20414;-53
2021/05/08 05:13:01;;;;;;;26.33;16.05;;;;;;;;;;5091397;28;20265;-52
2021/05/08 05:15:29;;;;;;;21.50;16.33;;;;;;;;;;5107114;28;20172;-53
2021/05/08 05:17:56;;;;;;;18.10;15.60;;;;;;;;;;5091573;28;20218;-53
2021/05/08 05:20:22;;;;;;;23.92;16.38;;;;;;;;;;5091049;28;20629;-53
2021/05/08 05:22:48;;;;;;;21.50;15.30;;;;;;;;;;5091141;28;20331;-53
2021/05/08 05:25:16;;;;;;;18.30;14.85;;;;;;;;;;5091311;28;20541;-53
2021/05/08 05:27:42;;;;;;;20.13;15.80;;;;;;;;;;5091140;28;20166;-52
2021/05/08 05:30:10;;;;;;;19.08;14.55;;;;;;;;;;5091010;28;20581;-52
2021/05/08 05:32:36;;;;;;;20.35;14.73;;;;;;;;;;5090988;28;20184;-54
2021/05/08 05:35:02;;;;;;;17.27;14.17;;;;;;;;;;5091186;28;20197;-54
2021/05/08 05:37:28;;;;;;;23.60;16.30;;;;;;;;;;5090973;28;20423;-55
2021/05/08 05:39:54;;;;;;;20.57;15.00;;;;;;;;;;5090844;28;20593;-54
2021/05/08 05:42:20;;;;;;;24.10;17.60;;;;;;;;;;5090913;28;20429;-53
2021/05/08 05:44:46;;;;;;;22.02;15.73;;;;;;;;;;5091037;28;20408;-53
2021/05/08 05:47:21;;;;;;;18.67;15.77;;;;;;;;;;5090894;28;20166;-54
2021/05/08 05:49:54;;;;;;;19.17;15.70;;;;;;;;;;5090609;28;20439;-53
2021/05/08 05:52:21;;;;;;;24.33;16.50;;;;;;;;;;5090540;28;20496;-54
2021/05/08 05:54:47;;;;;;;15.33;13.73;;;;;;;;;;5090975;28;20810;-53
2021/05/08 05:57:13;;;;;;;17.27;14.73;;;;;;;;;;5090801;28;21180;-52
2021/05/08 05:59:39;;;;;;;18.37;14.50;;;;;;;;;;5090757;28;20409;-52
2021/05/08 06:02:05;;;;;;;16.10;13.70;;;;;;;;;;5090713;28;20438;-53
2021/05/08 06:04:32;;;;;;;15.37;13.23;;;;;;;;;;5090305;28;20455;-52
2021/05/08 06:06:59;;;;;;;15.47;12.00;;;;;;;;;;5090333;28;20399;-52
2021/05/08 06:09:26;;;;;;;16.23;13.40;;;;;;;;;;5089806;28;20834;-55
2021/05/08 06:11:53;;;;;;;19.07;12.87;;;;;;;;;;5105904;28;20430;-53
2021/05/08 06:14:19;;;;;;;17.60;12.20;;;;;;;;;;5092779;28;20428;-52
2021/05/08 06:16:45;;;;;;;14.00;11.80;;;;;;;;;;5094915;28;20393;-53
2021/05/08 06:19:11;;;;;;;15.10;11.97;;;;;;;;;;5094365;28;20402;-54
2021/05/08 06:21:39;;;;;;;14.30;10.60;;;;;;;;;;5094754;28;20422;-54
2021/05/08 06:24:05;;;;;;;13.50;10.80;;;;;;;;;;5094472;28;20406;-53
2021/05/08 06:26:31;;;;;;;13.13;10.73;;;;;;;;;;5094673;28;20396;-52
2021/05/08 06:28:57;;;;;;;12.17;9.87;;;;;;;;;;5094171;28;20469;-53
2021/05/08 06:31:23;;;;;;;11.30;9.50;;;;;;;;;;5094567;28;20422;-52
2021/05/08 06:33:48;;;;;;;12.13;9.67;;;;;;;;;;5094391;28;20502;-53
2021/05/08 06:36:14;;;;;;;13.27;11.83;;;;;;;;;;5094498;28;20426;-53
2021/05/08 06:38:40;;;;;;;10.83;9.73;;;;;;;;;;5109827;28;20828;-53
2021/05/08 06:41:06;;;;;;;12.40;9.57;;;;;;;;;;5094391;28;20821;-53
2021/05/08 06:43:32;;;;;;;10.70;9.20;;;;;;;;;;5094192;28;20785;-53
2021/05/08 06:45:58;;;;;;;9.83;8.93;;;;;;;;;;5094280;28;20410;-54
2021/05/08 06:48:24;;;;;;;12.63;9.17;;;;;;;;;;5094089;28;20434;-53
2021/05/08 06:50:50;;;;;;;9.97;7.20;;;;;;;;;;5093843;28;20465;-53
2021/05/08 06:53:16;;;;;;;12.00;9.13;;;;;;;;;;5093981;28;20443;-53
2021/05/08 06:55:42;;;;;;;10.73;9.40;;;;;;;;;;5093961;28;20392;-54
2021/05/08 06:58:08;;;;;;;8.70;7.90;;;;;;;;;;5094051;28;20465;-53
2021/05/08 07:00:34;;;;;;;7.73;7.03;;;;;;;;;;5093624;28;20892;-54
2021/05/08 07:03:00;;;;;;;6.23;5.63;;;;;;;;;;5093780;28;20422;-53
2021/05/08 07:05:28;;;;;;;6.87;5.53;;;;;;;;;;5093657;28;20780;-54
2021/05/08 07:07:59;;;;;;;6.43;5.80;;;;;;;;;;5093864;28;20449;-53
2021/05/08 07:10:25;;;;;;;6.27;5.50;;;;;;;;;;5093290;28;20457;-53
2021/05/08 07:12:51;;;;;;;5.37;4.87;;;;;;;;;;5093753;28;21070;-53
2021/05/08 07:15:17;;;;;;;5.60;5.10;;;;;;;;;;5093671;28;20414;-53
2021/05/08 07:17:43;;;;;;;5.90;5.30;;;;;;;;;;5093529;28;20493;-53
2021/05/08 07:20:09;;;;;;;6.67;5.57;;;;;;;;;;5093199;28;20497;-53
2021/05/08 07:22:35;;;;;;;6.90;5.33;;;;;;;;;;5093538;28;20422;-53
2021/05/08 07:25:01;;;;;;;5.37;4.87;;;;;;;;;;5092587;28;20460;-53
2021/05/08 07:27:27;;;;;;;6.00;4.93;;;;;;;;;;5093498;28;20404;-53
2021/05/08 07:29:53;;;;;;;6.17;4.83;;;;;;;;;;5093095;28;20451;-53
2021/05/08 07:32:19;;;;;;;6.37;4.73;;;;;;;;;;5093134;28;20427;-53
2021/05/08 07:34:45;;;;;;;6.17;4.80;;;;;;;;;;5093701;28;20407;-53
2021/05/08 07:37:11;;;;;;;7.23;4.57;;;;;;;;;;5093328;28;20432;-53
2021/05/08 07:39:37;;;;;;;5.37;4.83;;;;;;;;;;5091802;28;20496;-54
2021/05/08 07:42:03;;;;;;;4.90;4.40;;;;;;;;;;5092861;28;20426;-56
2021/05/08 07:44:29;;;;;;;7.47;4.77;;;;;;;;;;5093191;28;20403;-55
2021/05/08 07:46:55;;;;;;;4.90;4.40;;;;;;;;;;5092971;28;20421;-55
2021/05/08 07:49:21;;;;;;;5.77;4.50;;;;;;;;;;5092936;28;20837;-56
2021/05/08 07:51:47;;;;;;;5.47;4.97;;;;;;;;;;5093053;28;20509;-53
2021/05/08 07:54:13;;;;;;;5.80;4.60;;;;;;;;;;5093930;28;20579;-55
2021/05/08 07:56:39;;;;;;;4.80;4.30;;;;;;;;;;5092865;28;20409;-54
2021/05/08 07:59:05;;;;;;;5.13;4.63;;;;;;;;;;5092582;28;20490;-54
2021/05/08 08:01:31;;;;;;;5.47;4.37;;;;;;;;;;5092432;28;20477;-55
2021/05/08 08:03:58;;;;;;;7.83;5.27;;;;;;;;;;5092768;28;20966;-55
2021/05/08 08:06:24;;;;;;;6.00;4.33;;;;;;;;;;5092658;28;20431;-54
2021/05/08 08:08:50;;;;;;;6.23;4.47;;;;;;;;;;5092195;28;20486;-54
2021/05/08 08:11:16;;;;;;;7.40;4.57;;;;;;;;;;5092686;28;20697;-54
2021/05/08 08:13:42;;;;;;;5.47;4.83;;;;;;;;;;5092402;28;20871;-54
2021/05/08 08:16:08;;;;;;;8.10;3.90;;;;;;;;;;5092305;28;20487;-54
2021/05/08 08:18:34;;;;;;;4.57;4.10;;;;;;;;;;5092196;28;20400;-54
2021/05/08 08:21:00;;;;;;;3.80;3.47;;;;;;;;;;5092168;28;20403;-54
2021/05/08 08:23:26;;;;;;;4.13;3.73;;;;;;;;;;5092195;28;20427;-54
2021/05/08 08:25:52;;;;;;;8.27;3.80;;;;;;;;;;5092316;28;20752;-55
2021/05/08 08:28:18;;;;;;;5.73;3.70;;;;;;;;;;5091942;28;20407;-55
2021/05/08 08:30:44;;;;;;;5.77;4.23;;;;;;;;;;5080022;28;20417;-55
2021/05/08 08:33:10;;;;;;;5.50;4.60;;;;;;;;;;5071674;28;20420;-54
2021/05/08 08:35:36;;;;;;;4.47;4.03;;;;;;;;;;5071903;28;20424;-54
2021/05/08 08:38:02;;;;;;;4.27;3.83;;;;;;;;;;5071543;28;20575;-54
2021/05/08 08:40:28;;;;;;;5.00;4.50;;;;;;;;;;5071379;28;20379;-54
2021/05/08 08:42:55;;;;;;;4.80;4.00;;;;;;;;;;5071385;28;20492;-54
2021/05/08 08:45:21;;;;;;;8.07;3.93;;;;;;;;;;5071279;28;20464;-54
2021/05/08 08:47:47;;;;;;;4.03;3.50;;;;;;;;;;5071634;28;20392;-55
2021/05/08 08:50:14;;;;;;;4.30;3.90;;;;;;;;;;5070967;28;20941;-54
2021/05/08 08:52:40;;;;;;;8.03;4.00;;;;;;;;;;5071282;28;20527;-55
2021/05/08 08:55:07;;;;;;;5.60;4.40;;;;;;;;;;5071241;28;20407;-54
2021/05/08 08:57:45;;;;;;;4.83;3.80;;;;;;;;;;5071401;28;20486;-54
2021/05/08 09:00:13;;;;;;;3.90;3.50;;;;;;;;;;5070931;28;20479;-54
2021/05/08 09:02:39;;;;;;;6.00;3.60;;;;;;;;;;5072457;28;20431;-54
2021/05/08 09:05:06;;;;;;;5.33;3.60;;;;;;;;;;5071576;28;20383;-54
2021/05/08 09:07:33;;;;;;;4.37;3.50;;;;;;;;;;5070325;28;20411;-53
2021/05/08 09:09:59;;;;;;;4.57;3.90;;;;;;;;;;5070970;28;20448;-54
2021/05/08 09:12:29;;;;;;;6.07;3.73;;;;;;;;;;5072275;28;20435;-54
2021/05/08 09:14:56;;;;;;;5.47;3.20;;;;;;;;;;5072322;28;20375;-53
2021/05/08 09:17:25;;;;;;;4.30;3.90;;;;;;;;;;5071572;28;20811;-53
2021/05/08 09:19:54;;;;;;;4.20;3.80;;;;;;;;;;5070746;28;20396;-53
2021/05/08 09:22:22;;;;;;;5.80;3.47;;;;;;;;;;5071460;28;20424;-53
2021/05/08 09:24:55;;;;;;;7.50;3.97;;;;;;;;;;5072108;28;20726;-53
2021/05/08 09:27:34;;;;;;;4.23;3.60;;;;;;;;;;5071478;28;20379;-53
2021/05/08 09:30:04;;;;;;;4.20;3.80;;;;;;;;;;5071161;28;20959;-54
2021/05/08 09:32:40;;;;;;;4.67;3.93;;;;;;;;;;5069796;28;20853;-54
2021/05/08 09:35:08;;;;;;;4.80;4.30;;;;;;;;;;5071121;28;20487;-55
2021/05/08 09:37:34;;;;;;;3.97;3.50;;;;;;;;;;5072518;28;20401;-54
2021/05/08 09:40:16;;;;;;;5.67;3.20;;;;;;;;;;5071043;28;20401;-54
2021/05/08 09:43:02;;;;;;;4.40;3.53;;;;;;;;;;5070960;28;20434;-54
2021/05/08 09:45:33;;;;;;;5.37;3.27;;;;;;;;;;5071808;28;20404;-54
2021/05/08 09:47:59;;;;;;;5.37;3.80;;;;;;;;;;5070710;28;20484;-53
2021/05/08 09:50:25;;;;;;;6.30;3.73;;;;;;;;;;5071120;28;20448;-54
2021/05/08 09:52:52;;;;;;;4.30;3.23;;;;;;;;;;5070900;28;20434;-54
2021/05/08 09:55:20;;;;;;;3.90;3.50;;;;;;;;;;5071076;28;20479;-54
2021/05/08 09:58:03;;;;;;;6.33;3.67;;;;;;;;;;5071042;28;20375;-54
2021/05/08 10:00:30;;;;;;;7.17;3.50;;;;;;;;;;5071173;28;20449;-54
2021/05/08 10:03:15;;;;;;;3.90;3.60;;;;;;;;;;5071259;28;20424;-54
2021/05/08 10:05:43;;;;;;;4.97;3.33;;;;;;;;;;5071463;28;20411;-54
2021/05/08 10:08:10;;;;;;;4.87;3.10;;;;;;;;;;5072010;28;20396;-54
2021/05/08 10:10:36;;;;;;;3.93;3.47;;;;;;;;;;5071177;28;20958;-54
2021/05/08 10:13:07;;;;;;;5.17;3.77;;;;;;;;;;5071701;28;20946;-54
2021/05/08 10:15:34;;;;;;;5.40;3.80;;;;;;;;;;5071976;28;20393;-54
2021/05/08 10:18:01;;;;;;;8.73;3.73;;;;;;;;;;5071080;28;20916;-55
2021/05/08 10:20:28;;;;;;;5.47;4.60;;;;;;;;;;5070888;28;20400;-55
2021/05/08 10:22:57;;;;;;;4.33;3.30;;;;;;;;;;5072247;28;20519;-55
2021/05/08 10:25:24;;;;;;;4.60;4.13;;;;;;;;;;5071442;28;20396;-54
2021/05/08 10:27:50;;;;;;;4.67;4.13;;;;;;;;;;5070955;28;20404;-54
2021/05/08 10:30:17;;;;;;;5.83;4.37;;;;;;;;;;5070281;28;20459;-54
2021/05/08 10:32:44;;;;;;;4.63;3.60;;;;;;;;;;5071325;28;20432;-54
2021/05/08 10:35:12;;;;;;;3.83;3.30;;;;;;;;;;5071211;28;20396;-55
2021/05/08 10:37:38;;;;;;;5.67;3.77;;;;;;;;;;5070929;28;20431;-54
2021/05/08 10:40:06;;;;;;;4.27;3.87;;;;;;;;;;5070832;28;20826;-54
2021/05/08 10:42:38;;;;;;;4.00;3.70;;;;;;;;;;5070595;28;20420;-54
2021/05/08 10:45:04;;;;;;;5.07;3.57;;;;;;;;;;5070770;28;20397;-54
2021/05/08 10:47:49;;;;;;;7.03;4.00;;;;;;;;;;5070904;28;20760;-54
2021/05/08 10:50:21;;;;;;;3.87;3.60;;;;;;;;;;5069762;28;20455;-54
2021/05/08 10:52:59;;;;;;;6.13;4.53;;;;;;;;;;5070389;28;20439;-54
2021/05/08 10:55:25;;;;;;;6.60;4.60;;;;;;;;;;5070638;28;20407;-54
2021/05/08 10:58:09;;;;;;;6.53;4.30;;;;;;;;;;5070262;28;20404;-54
2021/05/08 11:00:57;;;;;;;7.57;4.30;;;;;;;;;;5072682;28;20483;-55
2021/05/08 11:03:30;;;;;;;4.67;4.10;;;;;;;;;;5074037;28;20397;-55
2021/05/08 11:06:03;;;;;;;4.03;3.60;;;;;;;;;;5074060;28;20371;-53
2021/05/08 11:08:29;;;;;;;4.20;3.27;;;;;;;;;;5073395;28;20919;-54
2021/05/08 11:10:55;;;;;;;5.43;3.57;;;;;;;;;;5073292;28;20408;-54
2021/05/08 11:13:22;;;;;;;4.30;3.90;;;;;;;;;;5073572;28;20424;-54
2021/05/08 11:18:34;;;;;;;4.13;3.70;;;;;;;;;;5073481;28;20438;-54
2021/05/08 11:21:18;;;;;;;4.00;3.23;;;;;;;;;;5073493;28;20776;-54
2021/05/08 11:23:45;;;;;;;4.63;3.07;;;;;;;;;;5073345;28;20403;-54
2021/05/08 11:26:26;;;;;;;4.50;3.50;;;;;;;;;;5072893;28;20404;-54
2021/05/08 11:28:53;;;;;;;4.17;3.80;;;;;;;;;;5071510;28;20494;-54
2021/05/08 11:31:25;;;;;;;2.97;2.87;;;;;;;;;;5072942;28;20407;-54
2021/05/08 11:33:51;;;;;;;3.17;2.87;;;;;;;;;;5074185;28;20404;-54
2021/05/08 11:36:17;;;;;;;3.27;3.00;;;;;;;;;;5074513;28;20458;-54
2021/05/08 11:38:44;;;;;;;2.97;2.17;;;;;;;;;;5073695;28;20396;-54
2021/05/08 11:41:23;;;;;;;3.13;2.83;;;;;;;;;;5073638;28;20443;-54
2021/05/08 11:43:52;;;;;;;3.17;2.97;;;;;;;;;;5073511;28;20367;-54
2021/05/08 11:46:25;;;;;;;3.30;2.70;;;;;;;;;;5073399;28;20983;-54
2021/05/08 11:48:51;;;;;;;3.23;3.03;;;;;;;;;;5072785;28;20484;-53
2021/05/08 11:51:18;;;;;;;3.53;3.23;;;;;;;;;;5073034;28;20836;-55
2021/05/08 11:53:44;;;;;;;4.43;3.40;;;;;;;;;;5072627;28;20515;-54
2021/05/08 11:56:10;;;;;;;4.03;3.47;;;;;;;;;;5072802;28;20742;-54
2021/05/08 11:58:36;;;;;;;3.73;3.40;;;;;;;;;;5073258;28;20426;-54
2021/05/08 12:01:02;;;;;;;4.60;3.40;;;;;;;;;;5074001;28;20403;-53
2021/05/08 12:03:29;;;;;;;3.37;3.10;;;;;;;;;;5074073;28;20725;-54
2021/05/08 12:05:55;;;;;;;4.73;3.00;;;;;;;;;;5072072;28;20394;-53
2021/05/08 12:08:22;;;;;;;3.07;2.73;;;;;;;;;;5073886;28;20933;-53
2021/05/08 12:10:49;;;;;;;4.17;3.40;;;;;;;;;;5072407;28;20495;-53
2021/05/08 12:13:15;;;;;;;6.37;3.00;;;;;;;;;;5072443;28;20907;-54
2021/05/08 12:15:42;;;;;;;8.00;3.47;;;;;;;;;;5072436;28;20462;-53
2021/05/08 12:18:10;;;;;;;3.13;2.83;;;;;;;;;;5072444;28;20842;-53
2021/05/08 12:20:37;;;;;;;7.03;2.70;;;;;;;;;;5070919;28;20412;-53
2021/05/08 12:23:06;;;;;;;3.63;2.87;;;;;;;;;;5072511;28;20756;-54
2021/05/08 12:25:32;;;;;;;3.30;2.70;;;;;;;;;;5073631;28;20428;-53
2021/05/08 12:28:16;;;;;;;8.73;3.20;;;;;;;;;;5073300;28;20482;-53
2021/05/08 12:30:43;;;;;;;3.70;3.40;;;;;;;;;;5072685;28;20438;-53
2021/05/08 12:33:19;;;;;;;3.90;2.80;;;;;;;;;;5071455;28;20456;-53
2021/05/08 12:35:46;;;;;;;3.23;2.93;;;;;;;;;;5072763;28;20389;-53
2021/05/08 12:38:17;;;;;;;3.40;2.80;;;;;;;;;;5072762;28;20481;-54
2021/05/08 12:40:44;;;;;;;3.00;2.70;;;;;;;;;;5072612;28;20404;-53
2021/05/08 12:43:10;;;;;;;3.53;3.10;;;;;;;;;;5071251;28;20406;-53
2021/05/08 12:45:56;;;;;;;3.97;3.20;;;;;;;;;;5072706;28;20379;-53
2021/05/08 12:48:26;;;;;;;2.53;2.30;;;;;;;;;;5072552;28;20447;-53
2021/05/08 12:50:52;;;;;;;5.63;2.90;;;;;;;;;;5072694;28;20478;-53
2021/05/08 12:53:21;;;;;;;8.70;2.50;;;;;;;;;;5072268;28;20419;-53
2021/05/08 12:55:59;;;;;;;2.27;2.17;;;;;;;;;;5088480;28;20386;-54
2021/05/08 12:58:33;;;;;;;7.73;2.67;;;;;;;;;;5089838;28;20418;-53
2021/05/08 13:01:00;;;;;;;5.10;2.70;;;;;;;;;;5092144;28;20923;-53
2021/05/08 13:03:45;;;;;;;2.60;2.40;;;;;;;;;;5091847;28;20398;-53
2021/05/08 13:06:26;;;;;;;2.30;2.10;;;;;;;;;;5092412;28;20385;-53
2021/05/08 13:08:53;;;;;;;2.40;2.30;;;;;;;;;;5092083;28;20870;-53
2021/05/08 13:11:32;;;;;;;2.80;2.60;;;;;;;;;;5092292;28;20395;-53
2021/05/08 13:14:17;;;;;;;3.00;2.80;;;;;;;;;;5091699;28;20370;-53
2021/05/08 13:16:43;;;;;;;3.07;2.67;;;;;;;;;;5091906;28;20399;-54
2021/05/08 13:19:09;;;;;;;2.40;2.27;;;;;;;;;;5091751;28;20407;-53
2021/05/08 13:21:35;;;;;;;3.30;2.50;;;;;;;;;;5091810;28;20452;-53
2021/05/08 13:24:01;;;;;;;2.77;2.57;;;;;;;;;;5091356;28;20403;-53
2021/05/08 13:26:27;;;;;;;2.93;2.60;;;;;;;;;;5091969;28;20395;-53
2021/05/08 13:28:53;;;;;;;2.27;2.17;;;;;;;;;;5091427;28;20945;-54
2021/05/08 13:31:19;;;;;;;2.97;2.77;;;;;;;;;;5091761;28;20460;-54
2021/05/08 13:33:45;;;;;;;2.40;2.20;;;;;;;;;;5091930;28;20388;-54
2021/05/08 13:36:11;;;;;;;2.70;2.47;;;;;;;;;;5092316;28;20398;-53
2021/05/08 13:38:37;;;;;;;3.27;3.00;;;;;;;;;;5092055;28;20407;-53
2021/05/08 13:41:03;;;;;;;7.13;2.67;;;;;;;;;;5091558;28;20377;-53
2021/05/08 13:43:29;;;;;;;2.30;2.20;;;;;;;;;;5092018;28;20438;-54
2021/05/08 13:45:56;;;;;;;2.40;2.20;;;;;;;;;;5091979;28;20367;-53
2021/05/08 13:48:22;;;;;;;3.13;2.87;;;;;;;;;;5091824;28;20374;-53
2021/05/08 13:50:48;;;;;;;2.60;2.13;;;;;;;;;;5091707;28;20454;-53
2021/05/08 13:53:15;;;;;;;3.23;2.37;;;;;;;;;;5091996;28;20810;-54
2021/05/08 13:55:41;;;;;;;2.33;2.23;;;;;;;;;;5090659;28;20845;-54
2021/05/08 13:58:07;;;;;;;2.60;2.40;;;;;;;;;;5090840;28;20399;-54
2021/05/08 14:00:33;;;;;;;2.27;2.10;;;;;;;;;;5090697;28;20483;-53
2021/05/08 14:02:59;;;;;;;2.87;2.60;;;;;;;;;;5090639;28;20422;-54
2021/05/08 14:05:24;;;;;;;3.90;2.40;;;;;;;;;;5090759;28;20415;-54
2021/05/08 14:07:50;;;;;;;2.30;2.10;;;;;;;;;;5070926;28;20413;-53
2021/05/08 14:10:16;;;;;;;2.00;1.90;;;;;;;;;;5070384;28;20474;-54
2021/05/08 14:12:42;;;;;;;2.80;2.40;;;;;;;;;;5070681;28;20450;-54
2021/05/08 14:15:09;;;;;;;2.13;2.03;;;;;;;;;;5070632;28;20479;-54
2021/05/08 14:17:35;;;;;;;2.77;2.30;;;;;;;;;;5081228;28;20784;-53
2021/05/08 14:20:01;;;;;;;2.43;2.23;;;;;;;;;;5090371;28;20404;-54
2021/05/08 14:22:26;;;;;;;3.50;2.37;;;;;;;;;;5090460;28;20822;-54
2021/05/08 14:24:52;;;;;;;2.33;2.23;;;;;;;;;;5090660;28;21027;-55
2021/05/08 14:27:18;;;;;;;2.50;2.30;;;;;;;;;;5090611;28;20498;-54
2021/05/08 14:29:44;;;;;;;4.40;2.57;;;;;;;;;;5090355;28;20447;-54
2021/05/08 14:32:10;;;;;;;2.50;2.37;;;;;;;;;;5090659;28;20522;-54
2021/05/08 14:34:36;;;;;;;4.03;2.10;;;;;;;;;;5091834;28;20389;-54